Time;durP1;ratioP1;P1;durP2;ratioP2;P2;SDS_P1;SDS_P2;PMS_P1;PMS_P2;Temp;Humidity;BMP_temperature;BMP_pressure;BME280_temperature;BME280_humidity;BME280_pressure;Samples;Min_cycle;Max_cycle;Signal;HPM_P1;HPM_P2
2023/12/06 12:32:57;;;;;;;115.00;65.50;;;;;;;0.37;76.84;96819.77;105504;1265;186867;-80
2023/12/06 12:35:44;;;;;;;110.00;64.70;;;;;;;0.39;76.70;96816.95;106906;1247;97469;-80
2023/12/06 12:38:35;;;;;;;109.00;64.90;;;;;;;0.39;76.75;96814.14;106980;1248;97528;-79
2023/12/06 12:41:36;;;;;;;113.60;66.00;;;;;;;0.39;76.73;96814.83;106282;1257;100738;-79
2023/12/06 12:44:43;;;;;;;117.30;66.60;;;;;;;0.36;76.79;96809.71;105955;1260;100458;-79
2023/12/06 12:47:50;;;;;;;106.50;62.70;;;;;;;0.33;76.81;96809.00;105248;1267;98392;-80
2023/12/06 13:04:00;;;;;;;99.90;60.10;;;;;;;0.40;76.95;96814.64;102332;1292;638654;-78
2023/12/06 13:07:08;;;;;;;103.10;60.10;;;;;;;0.37;76.95;96814.30;104339;1270;95830;-80
2023/12/06 13:10:10;;;;;;;107.60;62.30;;;;;;;0.36;76.96;96816.09;104295;1276;96066;-79
2023/12/06 13:13:22;;;;;;;115.20;67.70;;;;;;;0.37;76.94;96817.48;102570;1291;98266;-79
2023/12/06 13:32:18;;;;;;;144.10;80.50;;;;;;;0.50;77.48;96814.84;102199;1297;644056;-80
2023/12/06 13:34:46;;;;;;;124.50;69.80;;;;;;;0.47;77.54;96821.21;105355;1272;96797;-80
2023/12/06 13:37:16;;;;;;;125.50;70.90;;;;;;;0.47;77.53;96817.86;103922;1276;95933;-80
2023/12/06 13:39:54;;;;;;;119.90;66.40;;;;;;;0.47;77.53;96815.86;103544;1278;98776;-80
2023/12/06 13:42:43;;;;;;;105.90;62.10;;;;;;;0.47;77.72;96815.33;104166;1277;100393;-80
2023/12/06 13:45:43;;;;;;;103.40;57.30;;;;;;;0.48;77.74;96815.50;104093;1266;309542;-81
2023/12/06 13:48:10;;;;;;;101.60;54.30;;;;;;;0.46;77.68;96819.71;104158;1276;95911;-81
2023/12/06 13:51:00;;;;;;;104.20;55.10;;;;;;;0.45;77.62;96822.36;103934;1274;95978;-79
2023/12/06 13:53:57;;;;;;;97.90;53.10;;;;;;;0.43;77.61;96827.96;104178;1271;106363;-80
2023/12/06 13:56:54;;;;;;;99.90;55.50;;;;;;;0.42;77.74;96829.85;104060;1267;100481;-82
2023/12/06 13:59:53;;;;;;;103.00;59.40;;;;;;;0.41;77.83;96833.70;104225;1270;99272;-84
2023/12/06 14:03:00;;;;;;;105.90;62.70;;;;;;;0.40;77.85;96836.25;103883;1273;96776;-80
2023/12/06 14:06:07;;;;;;;111.20;65.80;;;;;;;0.39;77.88;96835.88;103138;1282;95882;-79
2023/12/06 14:08:45;;;;;;;109.40;66.50;;;;;;;0.38;77.99;96836.86;102295;1292;99953;-79
2023/12/06 14:11:28;;;;;;;115.00;69.70;;;;;;;0.38;77.96;96840.91;102509;1277;100364;-80
2023/12/06 14:14:17;;;;;;;118.10;72.60;;;;;;;0.37;77.97;96845.55;103275;1290;99287;-79
2023/12/06 14:17:01;;;;;;;118.30;71.10;;;;;;;0.37;78.05;96844.56;103121;1290;96306;-80
2023/12/06 14:20:01;;;;;;;127.30;71.90;;;;;;;0.35;78.07;96847.95;103248;1282;95943;-80
2023/12/06 14:23:08;;;;;;;118.50;70.60;;;;;;;0.32;78.04;96847.52;103337;1280;99723;-80
2023/12/06 14:25:50;;;;;;;106.40;63.00;;;;;;;0.29;78.10;96844.85;103032;1299;100379;-80
2023/12/06 14:28:58;;;;;;;116.60;68.30;;;;;;;0.26;78.13;96845.20;102919;1286;99042;-80
2023/12/06 14:45:12;;;;;;;118.30;68.80;;;;;;;0.19;78.31;96849.23;101361;1303;641087;-80
2023/12/06 14:48:19;;;;;;;122.70;69.40;;;;;;;0.15;78.41;96852.33;102606;1286;95970;-81
2023/12/06 14:51:26;;;;;;;112.10;66.30;;;;;;;0.12;78.40;96852.98;102361;1290;96042;-80
2023/12/06 15:07:04;;;;;;;131.00;74.40;;;;;;;0.04;78.49;96845.01;102004;1297;637868;-80
2023/12/06 15:10:12;;;;;;;119.90;74.90;;;;;;;-0.03;78.49;96846.09;103694;1274;95989;-80
2023/12/06 15:13:13;;;;;;;124.60;74.80;;;;;;;-0.07;78.57;96849.58;103045;1286;95920;-80
2023/12/06 15:16:21;;;;;;;123.10;72.00;;;;;;;-0.11;78.62;96851.02;102329;1293;97347;-81
2023/12/06 15:23:38;;;;;;;129.00;72.20;;;;;;;-0.03;78.68;96845.92;101501;1311;642631;-80
2023/12/06 15:26:45;;;;;;;123.50;73.70;;;;;;;-0.20;78.66;96851.11;102808;1298;96725;-81
2023/12/06 15:29:53;;;;;;;128.80;77.40;;;;;;;-0.28;78.86;96850.27;101908;1302;96283;-81
2023/12/06 15:36:55;;;;;;;130.60;76.70;;;;;;;-0.26;78.89;96851.57;101567;1301;643067;-81
2023/12/06 15:40:03;;;;;;;127.90;76.30;;;;;;;-0.32;79.06;96851.50;102456;1289;96020;-80
2023/12/06 15:56:15;;;;;;;143.30;84.30;;;;;;;-0.33;79.46;96848.77;101977;1298;638726;-81
2023/12/06 15:59:23;;;;;;;137.20;81.60;;;;;;;-0.40;79.56;96849.95;103283;1282;95987;-80
2023/12/06 16:15:24;;;;;;;142.90;85.20;;;;;;;-0.44;79.68;96855.87;101543;1301;638631;-81
2023/12/06 16:18:32;;;;;;;131.80;80.10;;;;;;;-0.45;79.83;96861.96;103237;1280;96816;-81
2023/12/06 16:34:26;;;;;;;137.30;78.70;;;;;;;-0.52;79.78;96876.78;101967;1298;636588;-81
2023/12/06 16:37:17;;;;;;;153.70;85.20;;;;;;;-0.51;79.98;96880.20;103106;1281;96084;-83
2023/12/06 16:40:25;;;;;;;142.20;84.90;;;;;;;-0.52;79.97;96881.36;103167;1280;95866;-81
2023/12/06 16:43:27;;;;;;;147.60;89.10;;;;;;;-0.55;79.89;96884.31;102929;1286;98567;-80
2023/12/06 16:46:20;;;;;;;150.40;90.40;;;;;;;-0.58;79.97;96883.02;102968;1286;99146;-81
2023/12/06 16:49:04;;;;;;;136.40;83.70;;;;;;;-0.59;80.05;96884.04;99246;1280;109095;-81
2023/12/06 16:51:42;;;;;;;148.50;85.60;;;;;;;-0.62;80.02;96887.02;103197;1284;96042;-81
2023/12/06 16:54:45;;;;;;;149.30;89.00;;;;;;;-0.64;80.02;96882.33;102982;1285;98564;-81
2023/12/06 16:57:24;;;;;;;;;;;;;;;-0.68;80.14;96883.71;102996;1286;100507;-80
2023/12/06 17:00:22;;;;;;;140.40;87.70;;;;;;;-0.72;80.27;96883.49;103052;1286;98873;-81
2023/12/06 17:03:31;;;;;;;161.30;101.90;;;;;;;-0.74;80.24;96878.34;103119;1283;96763;-81
2023/12/06 17:06:28;;;;;;;216.30;130.30;;;;;;;-0.75;80.36;96875.59;103834;1274;96749;-81
2023/12/06 17:09:36;;;;;;;226.20;135.30;;;;;;;-0.71;80.50;96884.02;103346;1291;100033;-82
2023/12/06 17:12:45;;;;;;;310.20;183.80;;;;;;;-0.69;80.47;96883.31;103502;1279;100311;-81
2023/12/06 17:15:24;;;;;;;413.60;262.60;;;;;;;-0.71;80.46;96887.73;103966;1273;99121;-81
2023/12/06 17:18:17;;;;;;;485.40;306.90;;;;;;;-0.68;80.55;96893.95;103595;1279;95840;-81
2023/12/06 17:21:17;;;;;;;462.40;296.40;;;;;;;-0.64;80.58;96892.90;103970;1284;96033;-81
2023/12/06 17:24:08;;;;;;;357.40;225.70;;;;;;;-0.64;80.58;96894.98;104268;1271;99603;-80
2023/12/06 17:27:08;;;;;;;340.90;206.20;;;;;;;-0.63;80.48;96896.35;103998;1275;101776;-81
2023/12/06 17:30:16;;;;;;;366.80;227.50;;;;;;;-0.66;80.37;96900.47;103954;1273;98776;-83
2023/12/06 17:33:16;;;;;;;380.90;243.40;;;;;;;-0.71;80.26;96900.95;104009;1273;97160;-80
2023/12/06 17:43:24;;;;;;;326.90;195.40;;;;;;;-0.66;80.11;96904.06;102278;1292;642336;-82
2023/12/06 17:46:33;;;;;;;365.10;214.40;;;;;;;-0.69;80.00;96903.67;103208;1285;95991;-81
2023/12/06 18:02:56;;;;;;;360.40;215.60;;;;;;;-0.91;79.70;96904.66;101572;1301;644309;-81
2023/12/06 18:06:03;;;;;;;346.50;206.80;;;;;;;-1.00;79.78;96904.15;102563;1289;96200;-81
2023/12/06 18:09:10;;;;;;;361.50;213.00;;;;;;;-1.04;79.98;96907.72;102376;1295;96885;-81
2023/12/06 18:32:58;;;;;;;329.30;185.60;;;;;;;-0.80;79.43;96902.50;105020;1261;643072;-82
2023/12/06 18:36:05;;;;;;;314.50;177.20;;;;;;;-0.85;79.18;96906.51;103824;1257;2837647;-81
2023/12/06 18:39:12;;;;;;;303.90;171.90;;;;;;;-0.97;79.37;96908.92;104954;1267;96985;-83
2023/12/06 18:42:19;;;;;;;303.70;176.10;;;;;;;-1.09;79.32;96907.65;104796;1284;98355;-82
2023/12/06 18:45:26;;;;;;;295.70;175.40;;;;;;;-1.25;79.27;96906.40;104153;1280;100319;-81
2023/12/06 18:52:12;;;;;;;321.10;192.40;;;;;;;-1.36;79.40;96906.45;101466;1298;637465;-80
2023/12/06 18:55:21;;;;;;;334.20;215.10;;;;;;;-1.48;79.67;96907.75;103612;1282;96076;-81
2023/12/06 19:14:42;;;;;;;310.50;190.60;;;;;;;-1.67;79.47;96921.13;101516;1299;638799;-81
2023/12/06 19:17:50;;;;;;;314.80;199.00;;;;;;;-1.73;79.49;96926.11;103030;1285;97173;-81
2023/12/06 19:44:50;;;;;;;284.20;157.60;;;;;;;-1.52;78.89;96946.78;102601;1299;650155;-83
2023/12/06 19:47:50;;;;;;;292.30;153.40;;;;;;;-1.58;78.72;96949.71;99259;1286;5334027;-83
2023/12/06 19:50:58;;;;;;;302.10;167.30;;;;;;;-1.67;78.87;96952.91;102545;1286;97275;-81
2023/12/06 20:07:08;;;;;;;354.00;207.10;;;;;;;-2.02;78.86;96955.88;101517;1298;638596;-83
2023/12/06 20:10:16;;;;;;;327.50;202.80;;;;;;;-2.14;78.84;96958.23;104152;1270;96447;-81
2023/12/06 20:16:55;;;;;;;320.00;195.00;;;;;;;-2.18;78.82;96958.41;101959;1305;638588;-82
2023/12/06 20:19:54;;;;;;;304.20;186.40;;;;;;;-2.27;78.88;96953.58;103800;1279;97211;-82
2023/12/06 20:23:02;;;;;;;304.60;187.80;;;;;;;-2.31;78.96;96955.46;103992;1276;96088;-81
2023/12/06 20:26:04;;;;;;;311.60;192.50;;;;;;;-2.40;79.02;96957.84;104062;1274;107124;-81
2023/12/06 20:29:12;;;;;;;317.80;195.20;;;;;;;-2.42;79.08;96954.48;104013;1271;100586;-82
2023/12/06 20:32:13;;;;;;;297.10;183.90;;;;;;;-2.39;79.11;96957.73;100234;1278;100788;-82
2023/12/06 20:35:22;;;;;;;275.60;172.30;;;;;;;-2.36;79.28;96957.09;103861;1273;96081;-80
2023/12/06 20:48:50;;;;;;;286.70;172.50;;;;;;;-2.38;79.02;96971.06;101678;1295;642740;-82
2023/12/06 20:51:57;;;;;;;264.30;162.90;;;;;;;-2.43;78.87;96967.25;104131;1276;96140;-81
2023/12/06 20:55:04;;;;;;;283.90;169.10;;;;;;;-2.49;78.74;96968.02;102613;1289;96895;-81
2023/12/06 21:04:48;;;;;;;267.90;163.80;;;;;;;-2.50;78.93;96978.13;101415;1303;636916;-81
2023/12/06 21:07:36;;;;;;;252.30;153.80;;;;;;;-2.48;78.88;96982.40;103629;1274;96092;-80
2023/12/06 21:10:45;;;;;;;261.70;155.90;;;;;;;-2.48;78.81;96981.48;104328;1268;95930;-81
2023/12/06 21:13:46;;;;;;;261.30;156.00;;;;;;;-2.50;78.82;96984.84;104073;1277;98915;-82
2023/12/06 21:16:54;;;;;;;253.20;153.40;;;;;;;-2.54;78.76;96980.76;103511;1277;100409;-81
2023/12/06 21:19:56;;;;;;;266.30;158.10;;;;;;;-2.58;78.68;96979.02;99680;1280;108832;-81
2023/12/06 21:36:30;;;;;;;261.10;147.90;;;;;;;-2.73;78.80;96989.42;101562;1301;643105;-83
2023/12/06 21:39:38;;;;;;;257.70;154.60;;;;;;;-2.78;78.75;96989.88;102513;1289;95996;-83
2023/12/06 21:42:45;;;;;;;251.60;151.20;;;;;;;-2.79;78.78;96992.66;105727;1288;94337;-82
2023/12/06 22:12:25;;;;;;;247.90;129.50;;;;;;;-2.19;78.06;96993.05;101592;1269;5004568;-77
2023/12/06 22:15:33;;;;;;;255.10;134.00;;;;;;;-2.35;78.12;96993.36;106441;1253;95928;-82
2023/12/06 22:18:40;;;;;;;251.50;143.30;;;;;;;-2.49;78.27;96996.88;105153;1276;98408;-82
2023/12/06 22:21:47;;;;;;;258.70;155.60;;;;;;;-2.58;78.58;97000.58;105150;1268;100443;-81
2023/12/06 22:24:54;;;;;;;253.40;152.40;;;;;;;-2.65;78.59;97002.60;104571;1283;99022;-83
2023/12/06 22:28:32;;;;;;;263.50;156.40;;;;;;;-2.64;78.67;97001.27;101815;1297;638320;-80
2023/12/06 22:31:40;;;;;;;264.40;159.10;;;;;;;-2.66;78.72;97003.23;104284;1279;96097;-81
2023/12/06 22:34:41;;;;;;;245.90;150.80;;;;;;;-2.67;78.70;96999.42;103495;1275;96327;-81
2023/12/06 22:37:50;;;;;;;259.30;154.80;;;;;;;-2.70;78.77;96999.66;103197;1280;98012;-84
2023/12/06 22:44:29;;;;;;;274.80;160.80;;;;;;;-2.79;78.56;97000.02;101656;1299;637688;-81
2023/12/06 22:47:30;;;;;;;316.70;183.60;;;;;;;-2.91;78.64;96999.66;102912;1287;96058;-81
2023/12/06 22:50:27;;;;;;;295.60;174.60;;;;;;;-2.94;78.76;97005.77;102615;1301;95893;-81
2023/12/06 22:53:16;;;;;;;267.90;157.20;;;;;;;-2.91;78.90;97003.67;101858;1311;98657;-82
2023/12/06 23:09:17;;;;;;;376.70;221.10;;;;;;;-3.01;78.86;96998.82;101957;1302;640063;-81
2023/12/06 23:12:24;;;;;;;295.40;173.70;;;;;;;-3.07;78.94;96996.38;103856;1277;97172;-83
2023/12/06 23:15:26;;;;;;;289.40;170.10;;;;;;;-3.08;79.00;96994.88;103288;1278;95927;-81
2023/12/06 23:18:27;;;;;;;280.50;166.80;;;;;;;-3.09;79.02;96996.06;103413;1278;98327;-84
2023/12/06 23:31:28;;;;;;;262.90;153.80;;;;;;;-3.02;78.94;96989.75;102463;1291;643278;-81
2023/12/06 23:34:35;;;;;;;246.40;147.50;;;;;;;-3.06;78.97;96992.46;103986;1279;96806;-82
2023/12/06 23:37:42;;;;;;;260.00;156.10;;;;;;;-3.07;79.04;96992.73;102552;1291;96219;-83
2023/12/06 23:40:49;;;;;;;251.40;154.00;;;;;;;-3.13;79.00;96992.89;102188;1292;98516;-80
